Time;durP1;ratioP1;P1;durP2;ratioP2;P2;SDS_P1;SDS_P2;PMS_P1;PMS_P2;Temp;Humidity;BMP_temperature;BMP_pressure;BME280_temperature;BME280_humidity;BME280_pressure;Samples;Min_cycle;Max_cycle;Signal;HPM_P1;HPM_P2
2022/05/01 00:01:52;;;;;;;27.10;16.47;;;;;;;-145.18;100.00;46681.88;4971865;28;20372;-70
2022/05/01 00:04:17;;;;;;;27.87;18.17;;;;;;;-145.18;100.00;46685.78;4972639;28;20090;-69
2022/05/01 00:06:42;;;;;;;31.07;17.77;;;;;;;-145.18;100.00;46685.78;4972065;28;20502;-70
2022/05/01 00:09:08;;;;;;;29.13;16.77;;;;;;;-145.18;100.00;46691.66;4972260;28;20070;-70
2022/05/01 00:11:33;;;;;;;26.07;16.40;;;;;;;-145.18;100.00;46693.59;4972158;28;20117;-70
2022/05/01 00:13:59;;;;;;;30.87;17.33;;;;;;;-145.18;100.00;46701.41;4972054;28;20728;-70
2022/05/01 00:16:24;;;;;;;31.20;17.73;;;;;;;-145.18;100.00;46699.47;4971959;28;20062;-70
2022/05/01 00:18:50;;;;;;;30.47;18.00;;;;;;;-145.18;100.00;46705.31;4972133;28;20058;-70
2022/05/01 00:21:15;;;;;;;33.03;19.17;;;;;;;-145.18;100.00;46707.28;4972125;28;20492;-70
2022/05/01 00:23:41;;;;;;;28.87;17.83;;;;;;;-145.18;100.00;46707.28;4972273;28;20030;-69
2022/05/01 00:26:07;;;;;;;31.23;19.53;;;;;;;-145.18;100.00;46707.28;4971522;28;20042;-70
2022/05/01 00:28:34;;;;;;;31.40;18.80;;;;;;;-145.18;100.00;46701.41;4972071;28;20022;-70
2022/05/01 00:31:01;;;;;;;34.70;20.27;;;;;;;-145.18;100.00;46699.47;4971623;28;20292;-70
2022/05/01 00:36:25;;;;;;;33.47;19.10;;;;;;;-145.18;100.00;46699.47;4972040;28;20272;-70
2022/05/01 00:38:53;;;;;;;31.67;19.60;;;;;;;-145.18;100.00;46707.28;4971768;28;20347;-70
2022/05/01 00:41:18;;;;;;;36.33;19.97;;;;;;;-145.18;100.00;46701.41;4971684;28;20746;-70
2022/05/01 00:44:01;;;;;;;35.60;19.97;;;;;;;-145.18;100.00;46703.38;4971775;28;20264;-70
2022/05/01 00:46:30;;;;;;;33.97;19.63;;;;;;;-145.18;100.00;46707.28;4971251;28;20023;-70
2022/05/01 00:48:55;;;;;;;37.97;19.23;;;;;;;-145.18;100.00;46703.38;4971475;28;20280;-70
2022/05/01 00:51:22;;;;;;;34.83;19.10;;;;;;;-145.18;100.00;46703.38;4971609;28;20264;-70
2022/05/01 00:53:49;;;;;;;38.10;20.10;;;;;;;-145.18;100.00;46705.31;4971615;28;20446;-70
2022/05/01 00:56:15;;;;;;;37.13;20.43;;;;;;;-145.18;100.00;46701.41;4971554;28;20279;-70
2022/05/01 00:58:41;;;;;;;36.33;21.00;;;;;;;-145.18;100.00;46699.47;4971558;28;20607;-71
2022/05/01 01:01:07;;;;;;;39.77;21.10;;;;;;;-145.18;100.00;46701.41;4971184;28;20287;-70
2022/05/01 01:03:32;;;;;;;33.07;20.80;;;;;;;-145.18;100.00;46691.66;4970955;28;20451;-70
2022/05/01 01:05:58;;;;;;;30.13;20.87;;;;;;;-145.18;100.00;46691.66;4971386;28;20316;-70
2022/05/01 01:08:23;;;;;;;36.43;21.60;;;;;;;-145.18;100.00;46687.75;4971076;28;20384;-70
2022/05/01 01:10:49;;;;;;;32.70;20.60;;;;;;;-145.18;100.00;46685.78;4971288;28;20416;-70
2022/05/01 01:13:14;;;;;;;34.60;21.13;;;;;;;-145.18;100.00;46697.50;4971355;28;20411;-70
2022/05/01 01:15:41;;;;;;;36.57;20.77;;;;;;;-145.18;100.00;46693.59;4954320;28;20138;-71
2022/05/01 01:18:06;;;;;;;31.67;20.03;;;;;;;-145.18;100.00;46693.59;4970755;28;20034;-70
2022/05/01 01:20:32;;;;;;;34.63;20.23;;;;;;;-145.18;100.00;46697.50;4971422;28;20812;-70
2022/05/01 01:22:59;;;;;;;33.83;21.17;;;;;;;-145.18;100.00;46697.50;4970811;28;20051;-70
2022/05/01 01:25:32;;;;;;;32.87;19.87;;;;;;;-145.18;100.00;46697.50;4971520;28;20031;-70
2022/05/01 01:28:02;;;;;;;34.20;21.63;;;;;;;-145.18;100.00;46697.50;4970805;28;20295;-70
2022/05/01 01:33:15;;;;;;;33.73;21.87;;;;;;;-145.18;100.00;46693.59;4971453;28;20260;-70
2022/05/01 01:35:41;;;;;;;34.70;21.53;;;;;;;-145.18;100.00;46693.59;4971262;28;20463;-69
2022/05/01 01:38:07;;;;;;;31.43;19.90;;;;;;;-145.18;100.00;46685.78;4970436;28;20295;-70
2022/05/01 01:40:40;;;;;;;31.63;19.63;;;;;;;-145.18;100.00;46699.47;4971087;28;20633;-70
2022/05/01 01:43:06;;;;;;;30.37;18.67;;;;;;;-145.18;100.00;46699.47;4971439;28;20061;-70
2022/05/01 01:45:33;;;;;;;28.70;17.23;;;;;;;-145.18;100.00;46699.47;4975004;28;20276;-70
2022/05/01 01:48:11;;;;;;;37.00;21.03;;;;;;;-145.18;100.00;46695.56;4974489;28;20272;-70
2022/05/01 01:50:37;;;;;;;36.87;20.53;;;;;;;-145.18;100.00;46697.50;4975215;28;20402;-69
2022/05/01 01:53:02;;;;;;;37.60;22.10;;;;;;;-145.18;100.00;46703.38;4974275;28;20873;-69
2022/05/01 01:55:33;;;;;;;37.37;21.27;;;;;;;-145.18;100.00;46699.47;4974921;28;20049;-69
2022/05/01 01:57:59;;;;;;;50.70;24.27;;;;;;;-145.18;100.00;46693.59;4974546;28;20042;-69
2022/05/01 02:03:08;;;;;;;43.47;25.70;;;;;;;-145.18;100.00;46683.84;4995863;23;20050;-69
2022/05/01 02:05:34;;;;;;;41.53;23.77;;;;;;;-145.18;100.00;46683.84;4984931;28;20330;-69
2022/05/01 02:08:00;;;;;;;42.00;23.60;;;;;;;-145.18;100.00;46687.75;4994021;28;20046;-70
2022/05/01 02:10:26;;;;;;;35.50;20.77;;;;;;;-145.18;100.00;46685.78;4994095;28;20288;-70
2022/05/01 02:12:52;;;;;;;30.53;17.00;;;;;;;-145.18;100.00;46683.84;4993579;28;20770;-70
2022/05/01 02:15:18;;;;;;;28.90;17.53;;;;;;;-145.18;100.00;46683.84;4994174;28;20581;-70
2022/05/01 02:17:50;;;;;;;32.07;18.60;;;;;;;-145.18;100.00;46683.84;5004095;28;20342;-70
2022/05/01 02:20:16;;;;;;;30.23;18.97;;;;;;;-145.18;100.00;46681.88;5013853;28;20501;-70
2022/05/01 02:22:42;;;;;;;31.97;20.10;;;;;;;-145.18;100.00;46683.84;5013097;28;20275;-70
2022/05/01 02:25:09;;;;;;;35.40;20.97;;;;;;;-145.18;100.00;46687.75;4995975;28;20029;-70
2022/05/01 02:27:36;;;;;;;37.13;22.23;;;;;;;-145.18;100.00;46689.69;5012883;28;20322;-69
2022/05/01 02:30:02;;;;;;;33.33;19.47;;;;;;;-145.18;100.00;46689.69;5013765;28;20287;-69
2022/05/01 02:32:27;;;;;;;28.60;15.93;;;;;;;-145.18;100.00;46687.75;5013024;28;20266;-69
2022/05/01 02:34:52;;;;;;;26.47;15.90;;;;;;;-145.18;100.00;46697.50;5013181;28;20482;-69
2022/05/01 02:37:18;;;;;;;25.13;16.37;;;;;;;-145.18;100.00;46693.59;5012955;28;20022;-69
2022/05/01 02:39:43;;;;;;;24.93;15.97;;;;;;;-145.18;100.00;46701.41;5013309;28;20409;-69
2022/05/01 02:42:08;;;;;;;29.63;18.00;;;;;;;-145.18;100.00;46701.41;5013060;28;20033;-69
2022/05/01 02:44:34;;;;;;;26.63;15.00;;;;;;;-145.18;100.00;46697.50;4993674;28;20035;-69
2022/05/01 02:47:00;;;;;;;24.33;15.70;;;;;;;-145.18;100.00;46703.38;4973895;28;20023;-69
2022/05/01 02:49:25;;;;;;;25.03;15.00;;;;;;;-145.18;100.00;46703.38;4974005;28;20490;-69
2022/05/01 02:51:53;;;;;;;26.90;16.33;;;;;;;-145.18;100.00;46699.47;4973570;28;20042;-69
2022/05/01 02:54:19;;;;;;;22.83;15.50;;;;;;;-145.18;100.00;46699.47;4973964;28;20114;-69
2022/05/01 02:56:44;;;;;;;22.80;15.13;;;;;;;-145.18;100.00;46701.41;4973535;28;20789;-69
2022/05/01 02:59:10;;;;;;;24.83;16.67;;;;;;;-145.18;100.00;46697.50;4973604;28;20265;-69
2022/05/01 03:01:36;;;;;;;29.50;18.23;;;;;;;-145.18;100.00;46699.47;4973719;28;20105;-69
2022/05/01 03:04:02;;;;;;;25.37;14.40;;;;;;;-145.18;100.00;46699.47;4973837;28;20075;-69
2022/05/01 03:06:28;;;;;;;34.57;20.80;;;;;;;-145.18;100.00;46697.50;4973882;28;20340;-68
2022/05/01 03:08:54;;;;;;;22.90;13.67;;;;;;;-145.18;100.00;46695.56;4973455;28;20340;-69
2022/05/01 03:11:19;;;;;;;23.10;13.93;;;;;;;-145.18;100.00;46699.47;4973655;28;20038;-69
2022/05/01 03:13:44;;;;;;;32.17;19.03;;;;;;;-145.18;100.00;46699.47;4973370;28;20472;-69
2022/05/01 03:16:10;;;;;;;28.90;17.83;;;;;;;-145.18;100.00;46699.47;4973724;28;20062;-68
2022/05/01 03:24:03;;;;;;;196.43;19.13;;;;;;;-145.18;100.00;46697.50;4973629;28;20050;-68
2022/05/01 03:26:29;;;;;;;16.03;11.27;;;;;;;-145.18;100.00;46695.56;4973848;28;20277;-68
2022/05/01 03:28:54;;;;;;;43.22;12.00;;;;;;;-145.18;100.00;46693.59;4971415;28;20031;-68
2022/05/01 03:31:20;;;;;;;20.87;13.07;;;;;;;-145.18;100.00;46695.56;4973651;28;20085;-68
2022/05/01 03:33:45;;;;;;;25.53;14.97;;;;;;;-145.18;100.00;46677.97;4972796;28;20035;-69
2022/05/01 03:36:11;;;;;;;27.10;16.23;;;;;;;-145.18;100.00;46683.84;4973427;28;20086;-68
2022/05/01 03:38:42;;;;;;;23.93;15.93;;;;;;;-145.18;100.00;46689.69;4972697;28;20049;-69
2022/05/01 03:41:12;;;;;;;25.23;16.05;;;;;;;-145.18;100.00;46685.78;4973316;28;20038;-69
2022/05/01 03:43:38;;;;;;;22.58;15.32;;;;;;;-145.18;100.00;46683.84;4972934;28;20027;-69
2022/05/01 03:46:06;;;;;;;28.05;16.13;;;;;;;-145.18;100.00;46685.78;4973140;28;20058;-69
2022/05/01 03:48:32;;;;;;;21.38;14.20;;;;;;;-145.18;100.00;46683.84;4972203;28;20023;-69
2022/05/01 03:50:58;;;;;;;21.80;14.13;;;;;;;-145.18;100.00;46679.94;4973095;28;20037;-69
2022/05/01 03:53:24;;;;;;;59.70;11.87;;;;;;;-145.18;100.00;46679.94;4972704;28;20167;-69
2022/05/01 03:55:51;;;;;;;28.87;11.67;;;;;;;-145.18;100.00;46683.84;4973012;28;20765;-69
2022/05/01 03:58:17;;;;;;;18.58;13.90;;;;;;;-145.18;100.00;46683.84;4972588;28;20038;-69
2022/05/01 04:00:44;;;;;;;17.30;12.52;;;;;;;-145.18;100.00;46683.84;4972750;28;20027;-69
2022/05/01 04:03:11;;;;;;;27.80;16.13;;;;;;;-145.18;100.00;46681.88;4972050;28;20043;-69
2022/05/01 04:05:36;;;;;;;22.05;14.20;;;;;;;-145.18;100.00;46676.03;4972699;28;20061;-69
2022/05/01 04:08:01;;;;;;;27.70;14.30;;;;;;;-145.18;100.00;46677.97;4972379;28;20495;-69
2022/05/01 04:10:27;;;;;;;17.20;11.23;;;;;;;-145.18;100.00;46679.94;4955423;28;20070;-68
2022/05/01 04:12:52;;;;;;;26.97;11.53;;;;;;;-145.18;100.00;46674.06;4972058;28;20042;-68
2022/05/01 04:15:18;;;;;;;15.50;10.77;;;;;;;-145.18;100.00;46679.94;4955436;28;20042;-68
2022/05/01 04:17:44;;;;;;;24.83;9.53;;;;;;;-145.18;100.00;46677.97;4971913;28;20522;-69
2022/05/01 04:20:15;;;;;;;29.57;9.37;;;;;;;-145.18;100.00;46676.03;4972442;28;20114;-68
2022/05/01 04:22:45;;;;;;;16.02;9.45;;;;;;;-145.18;100.00;46668.22;4971707;28;20030;-68
2022/05/01 04:25:19;;;;;;;12.82;8.50;;;;;;;-145.18;100.00;46677.97;4972328;28;20033;-68
2022/05/01 04:27:48;;;;;;;15.50;8.85;;;;;;;-145.18;100.00;46679.94;4971850;28;20026;-68
2022/05/01 04:30:15;;;;;;;11.68;9.18;;;;;;;-145.18;100.00;46672.13;4972361;28;20502;-68
2022/05/01 04:32:51;;;;;;;15.98;10.10;;;;;;;-145.18;100.00;46672.13;4971584;28;20495;-68
2022/05/01 04:35:38;;;;;;;19.00;10.75;;;;;;;-145.18;100.00;46676.03;4972085;28;20165;-68
2022/05/01 04:38:05;;;;;;;20.40;11.13;;;;;;;-145.18;100.00;46677.97;4972116;28;20430;-68
2022/05/01 04:40:34;;;;;;;19.08;11.85;;;;;;;-145.18;100.00;46676.03;4972251;28;20042;-68
2022/05/01 04:43:11;;;;;;;12.65;8.27;;;;;;;-145.18;100.00;46672.13;4972115;28;20041;-68
2022/05/01 04:45:38;;;;;;;30.33;17.23;;;;;;;-145.18;100.00;46674.06;4971996;28;20436;-68
2022/05/01 04:48:05;;;;;;;42.60;22.45;;;;;;;-145.18;100.00;46672.13;4971442;28;20046;-68
2022/05/01 04:50:30;;;;;;;31.10;17.23;;;;;;;-145.18;100.00;46676.03;4971908;28;20062;-68
2022/05/01 04:52:57;;;;;;;18.70;12.40;;;;;;;-145.18;100.00;46672.13;4971513;28;20059;-68
2022/05/01 04:55:23;;;;;;;19.90;9.38;;;;;;;-145.18;100.00;46676.03;4975145;23;20142;-88
2022/05/01 04:57:49;;;;;;;10.00;8.20;;;;;;;-145.18;100.00;46668.22;4961987;28;20022;-90
2022/05/01 05:00:15;;;;;;;10.45;7.95;;;;;;;-145.18;100.00;46672.13;4958803;28;20023;-91
2022/05/01 05:02:42;;;;;;;14.27;7.67;;;;;;;-145.18;100.00;46664.31;4955506;29;20082;-90
2022/05/01 05:05:10;;;;;;;12.80;9.33;;;;;;;-145.18;100.00;46668.22;4957208;28;20074;-90
2022/05/01 05:12:47;;;;;;;53.42;29.05;;;;;;;-145.18;100.00;46668.22;5005723;23;20058;-70
2022/05/01 05:15:16;;;;;;;50.05;30.17;;;;;;;-145.18;100.00;46662.34;4998582;28;20035;-69
2022/05/01 05:17:42;;;;;;;43.70;25.93;;;;;;;-145.18;100.00;46664.31;4989564;28;20031;-69
2022/05/01 05:20:10;;;;;;;52.63;27.60;;;;;;;-145.18;100.00;46664.31;4990706;28;20764;-69
2022/05/01 05:22:35;;;;;;;50.40;29.93;;;;;;;-145.18;100.00;46664.31;4990425;28;20326;-69
2022/05/01 05:25:02;;;;;;;44.50;26.30;;;;;;;-145.18;100.00;46666.25;4990275;28;20276;-69
2022/05/01 05:27:28;;;;;;;44.10;25.50;;;;;;;-145.18;100.00;46658.44;4990670;28;20514;-69
2022/05/01 05:29:57;;;;;;;50.17;29.47;;;;;;;-145.18;100.00;46662.34;4989927;28;20295;-69
2022/05/01 05:32:24;;;;;;;57.20;32.20;;;;;;;-145.18;100.00;46666.25;5006692;28;20030;-69
2022/05/01 05:34:50;;;;;;;51.10;31.20;;;;;;;-145.18;100.00;46662.34;5005232;23;20798;-69
2022/05/01 05:37:17;;;;;;;52.30;30.60;;;;;;;-145.18;100.00;46662.34;5003832;28;20279;-69
2022/05/01 05:39:42;;;;;;;59.10;31.67;;;;;;;-145.18;100.00;46662.34;4976257;28;20294;-69
2022/05/01 05:42:08;;;;;;;55.67;31.97;;;;;;;-145.18;100.00;46662.34;4990936;28;20740;-70
2022/05/01 05:44:34;;;;;;;56.23;31.17;;;;;;;-145.18;100.00;46664.31;5009186;28;20065;-69
2022/05/01 05:46:59;;;;;;;55.50;30.77;;;;;;;-145.18;100.00;46656.50;5009839;28;20124;-69
2022/05/01 05:49:24;;;;;;;54.37;31.93;;;;;;;-145.18;100.00;46662.34;5009567;28;20034;-69
2022/05/01 05:51:51;;;;;;;57.63;32.13;;;;;;;-145.18;100.00;46660.41;5009837;28;20117;-70
2022/05/01 05:54:16;;;;;;;53.43;30.73;;;;;;;-145.18;100.00;46656.50;5009611;28;20034;-69
2022/05/01 05:56:41;;;;;;;55.70;31.87;;;;;;;-145.18;100.00;46658.44;5009548;28;20759;-69
2022/05/01 05:59:07;;;;;;;50.23;30.63;;;;;;;-145.18;100.00;46660.41;5009461;28;20466;-69
2022/05/01 06:01:33;;;;;;;51.77;29.47;;;;;;;-145.18;100.00;46662.34;5009599;28;20409;-69
2022/05/01 06:03:58;;;;;;;49.07;29.10;;;;;;;-145.18;100.00;46658.44;5009494;28;20477;-69
2022/05/01 06:06:24;;;;;;;51.17;29.47;;;;;;;-145.18;100.00;46658.44;5010155;28;20057;-69
2022/05/01 06:08:49;;;;;;;49.40;28.90;;;;;;;-145.18;100.00;46656.50;5009403;28;20475;-69
2022/05/01 06:11:14;;;;;;;47.80;29.27;;;;;;;-145.18;100.00;46662.34;5009475;28;20046;-70
2022/05/01 06:13:40;;;;;;;43.90;26.33;;;;;;;-145.18;100.00;46662.34;5009179;28;20033;-70
2022/05/01 06:16:05;;;;;;;43.30;26.07;;;;;;;-145.18;100.00;46662.34;4991849;28;20161;-70
2022/05/01 06:18:31;;;;;;;41.13;25.67;;;;;;;-145.18;100.00;46662.34;4975324;28;20038;-70
2022/05/01 06:20:57;;;;;;;37.77;24.83;;;;;;;-145.18;100.00;46662.34;5009447;28;20038;-70
2022/05/01 06:23:22;;;;;;;39.53;26.47;;;;;;;-145.18;100.00;46664.31;5009193;28;20084;-69
2022/05/01 06:25:49;;;;;;;38.37;23.77;;;;;;;-145.18;100.00;46664.31;5009270;28;20272;-70
2022/05/01 06:28:15;;;;;;;39.30;23.53;;;;;;;-145.18;100.00;46664.31;5009547;28;20371;-70
2022/05/01 06:30:48;;;;;;;41.63;23.70;;;;;;;-145.18;100.00;46664.31;5010472;28;20767;-70
2022/05/01 06:33:16;;;;;;;41.40;23.20;;;;;;;-145.18;100.00;46666.25;5013056;28;20810;-70
2022/05/01 06:35:42;;;;;;;35.33;22.70;;;;;;;-145.18;100.00;46668.22;5012678;28;20287;-70
2022/05/01 06:38:08;;;;;;;36.17;22.33;;;;;;;-145.18;100.00;46666.25;5011598;28;20279;-70
2022/05/01 06:40:34;;;;;;;34.87;21.70;;;;;;;-145.18;100.00;46666.25;5012759;28;20294;-70
2022/05/01 06:43:00;;;;;;;36.17;22.70;;;;;;;-145.18;100.00;46662.34;5012605;28;20033;-70
2022/05/01 06:45:28;;;;;;;30.63;21.97;;;;;;;-145.18;100.00;46664.31;5012606;28;20706;-70
2022/05/01 06:47:53;;;;;;;34.07;20.23;;;;;;;-145.18;100.00;46658.44;4995842;28;20478;-70
2022/05/01 06:50:20;;;;;;;34.47;20.63;;;;;;;-145.18;100.00;46652.59;5011762;28;20307;-70
2022/05/01 06:52:46;;;;;;;31.63;21.20;;;;;;;-145.18;100.00;46640.88;5012641;28;20561;-70
2022/05/01 06:55:11;;;;;;;32.87;19.87;;;;;;;-145.18;100.00;46629.13;5012294;28;20307;-70
2022/05/01 06:57:36;;;;;;;28.20;18.87;;;;;;;-145.18;100.00;46597.88;5012191;28;20033;-70
2022/05/01 07:00:02;;;;;;;24.23;17.30;;;;;;;-145.18;100.00;46560.78;5006629;28;20042;-70
2022/05/01 07:02:27;;;;;;;27.20;18.13;;;;;;;-145.18;100.00;46545.16;4996664;28;20046;-70
2022/05/01 07:04:53;;;;;;;26.40;17.90;;;;;;;-145.18;100.00;46539.28;5011537;28;20453;-70
2022/05/01 07:07:18;;;;;;;24.00;18.20;;;;;;;-145.18;100.00;46539.28;4993345;28;20077;-70
2022/05/01 07:09:44;;;;;;;23.37;15.87;;;;;;;-145.18;100.00;46545.16;5009826;28;20034;-70
2022/05/01 07:12:11;;;;;;;24.60;15.13;;;;;;;-145.18;100.00;46551.00;5011256;28;20042;-70
2022/05/01 07:14:40;;;;;;;26.13;14.93;;;;;;;-145.18;100.00;46551.00;5010155;28;20429;-70
2022/05/01 07:17:06;;;;;;;24.60;14.77;;;;;;;-145.18;100.00;46558.81;4992101;28;20639;-70
2022/05/01 07:19:31;;;;;;;27.27;15.63;;;;;;;-145.18;100.00;46558.81;5010049;28;20275;-70
2022/05/01 07:21:57;;;;;;;24.13;15.23;;;;;;;-145.18;100.00;46562.72;5011167;28;20034;-70
2022/05/01 07:24:22;;;;;;;22.33;13.67;;;;;;;-145.18;100.00;46566.63;5011734;28;20204;-70
2022/05/01 07:26:47;;;;;;;22.10;13.43;;;;;;;-145.18;100.00;46574.44;5010765;28;20050;-70
2022/05/01 07:29:13;;;;;;;23.57;14.13;;;;;;;-145.18;100.00;46578.34;5011496;28;20034;-70
2022/05/01 07:31:39;;;;;;;24.93;12.37;;;;;;;-145.18;100.00;46588.13;5011814;28;20045;-70
2022/05/01 07:34:05;;;;;;;23.87;12.93;;;;;;;-145.18;100.00;46576.41;5012026;28;20038;-70
2022/05/01 07:36:31;;;;;;;18.40;12.57;;;;;;;-145.18;100.00;46578.34;5010580;28;20929;-71
2022/05/01 07:38:57;;;;;;;17.50;12.57;;;;;;;-145.18;100.00;46593.97;4994249;28;20271;-70
2022/05/01 07:41:22;;;;;;;20.67;12.77;;;;;;;-145.18;100.00;46595.94;4993887;28;20053;-70
2022/05/01 07:43:48;;;;;;;19.37;13.23;;;;;;;-145.18;100.00;46592.03;5011410;28;20267;-71
2022/05/01 07:46:13;;;;;;;19.60;13.13;;;;;;;-145.18;100.00;46578.34;5011520;28;20036;-71
2022/05/01 07:48:39;;;;;;;18.20;13.13;;;;;;;-145.18;100.00;46584.22;5011361;28;20038;-71
2022/05/01 07:51:04;;;;;;;18.10;12.07;;;;;;;-145.18;100.00;46619.38;5011268;28;20120;-71
2022/05/01 07:53:32;;;;;;;18.47;12.13;;;;;;;-145.18;100.00;46627.19;5011017;28;20467;-71
2022/05/01 07:55:57;;;;;;;16.97;12.33;;;;;;;-145.18;100.00;46619.38;4996906;28;20045;-72
2022/05/01 07:58:23;;;;;;;18.63;10.13;;;;;;;-145.18;100.00;46654.53;5002551;28;20267;-71
2022/05/01 08:00:48;;;;;;;18.97;9.83;;;;;;;-145.18;100.00;46693.59;5010558;28;20437;-71
2022/05/01 08:05:58;;;;;;;14.40;8.83;;;;;;;-145.18;100.00;47308.97;5010907;28;20045;-71
2022/05/01 08:08:24;;;;;;;17.30;8.43;;;;;;;-145.18;100.00;47293.31;5010666;28;20263;-71
2022/05/01 08:10:50;;;;;;;18.53;8.03;;;;;;;-145.18;100.00;47363.66;5011309;28;20469;-71
2022/05/01 08:13:15;;;;;;;10.33;6.67;;;;;;;-145.18;100.00;47338.25;5011154;28;20125;-71
2022/05/01 08:15:40;;;;;;;7.13;4.23;;;;;;;-145.18;100.00;47312.88;4993739;28;20592;-71
2022/05/01 08:21:05;;;;;;;9.93;6.10;;;;;;;-145.18;100.00;47330.44;5011367;28;20513;-71
2022/05/01 08:23:31;;;;;;;10.73;6.87;;;;;;;-145.18;100.00;47340.22;5010400;28;20794;-72
2022/05/01 08:26:02;;;;;;;12.17;7.53;;;;;;;-145.18;100.00;47369.53;5010961;28;20286;-72
2022/05/01 08:28:31;;;;;;;13.87;8.13;;;;;;;-145.18;100.00;47379.28;5010779;28;20306;-72
2022/05/01 08:30:57;;;;;;;12.90;8.77;;;;;;;-145.18;100.00;47377.34;5010890;28;20699;-71
2022/05/01 08:33:22;;;;;;;13.40;7.53;;;;;;;-145.18;100.00;47377.34;5010778;28;20271;-72
2022/05/01 08:35:48;;;;;;;13.67;8.20;;;;;;;-145.18;100.00;47379.28;5010633;28;20132;-72
2022/05/01 08:38:13;;;;;;;11.07;8.03;;;;;;;-145.18;100.00;47375.38;5010878;28;20518;-71
2022/05/01 08:40:39;;;;;;;11.43;7.43;;;;;;;-145.18;100.00;47379.28;5010620;28;20042;-72
2022/05/01 08:43:05;;;;;;;16.43;8.13;;;;;;;-145.18;100.00;47361.72;5010832;28;20034;-72
2022/05/01 08:45:54;;;;;;;11.93;7.27;;;;;;;-145.18;100.00;47361.72;5010423;28;20282;-72
2022/05/01 08:48:29;;;;;;;12.93;7.17;;;;;;;-145.18;100.00;47361.72;5010643;28;20076;-72
2022/05/01 08:50:55;;;;;;;11.25;7.32;;;;;;;-145.18;100.00;47322.63;5010709;28;20287;-72
2022/05/01 08:53:22;;;;;;;11.93;7.40;;;;;;;-145.18;100.00;47316.78;5010078;28;20042;-72
2022/05/01 08:55:48;;;;;;;13.07;7.70;;;;;;;-145.18;100.00;47312.88;5010444;28;20108;-72
2022/05/01 08:58:15;;;;;;;12.37;7.40;;;;;;;-145.18;100.00;47312.88;5010534;28;20260;-72
2022/05/01 09:00:41;;;;;;;10.83;7.23;;;;;;;-145.18;100.00;47285.50;4992525;28;20458;-72
2022/05/01 09:03:07;;;;;;;11.20;7.13;;;;;;;-145.18;100.00;47293.31;5010384;28;20034;-72
2022/05/01 09:05:33;;;;;;;12.93;7.37;;;;;;;-145.18;100.00;47289.41;5010190;28;20092;-72
2022/05/01 09:07:58;;;;;;;15.07;8.13;;;;;;;-145.18;100.00;47264.03;5010584;28;20040;-72
2022/05/01 09:10:29;;;;;;;11.23;7.37;;;;;;;-145.18;100.00;47238.63;5009735;28;20033;-72
2022/05/01 09:12:54;;;;;;;8.43;5.70;;;;;;;-145.18;100.00;47246.44;5010489;28;20033;-72
2022/05/01 09:15:40;;;;;;;10.87;6.30;;;;;;;-145.18;100.00;47252.31;5010052;28;20034;-72
2022/05/01 09:18:10;;;;;;;9.27;6.50;;;;;;;-145.18;100.00;47252.31;5010185;28;20022;-72
2022/05/01 09:20:39;;;;;;;8.53;6.47;;;;;;;-145.18;100.00;47267.94;5009737;28;20459;-72
2022/05/01 09:23:06;;;;;;;8.93;5.77;;;;;;;-145.18;100.00;47258.16;5010079;28;20112;-72
2022/05/01 09:25:32;;;;;;;11.80;5.40;;;;;;;-145.18;100.00;47269.88;5010181;28;20096;-72
2022/05/01 09:28:00;;;;;;;8.47;5.13;;;;;;;-145.18;100.00;47279.66;5010451;28;20025;-72
2022/05/01 09:30:38;;;;;;;7.80;5.87;;;;;;;-145.18;100.00;47269.88;4994746;28;20586;-72
2022/05/01 09:33:04;;;;;;;9.77;6.07;;;;;;;-145.18;100.00;47262.06;4990580;28;20041;-72
2022/05/01 09:35:31;;;;;;;8.30;4.90;;;;;;;-145.18;100.00;47265.97;4990079;28;20054;-72
2022/05/01 09:38:15;;;;;;;10.10;6.70;;;;;;;-145.18;100.00;47285.50;4990341;28;20114;-72
2022/05/01 09:40:43;;;;;;;11.67;7.73;;;;;;;-145.18;100.00;47262.06;4990190;28;20034;-72
2022/05/01 09:43:08;;;;;;;11.50;6.37;;;;;;;-145.18;100.00;47264.03;4990395;28;20041;-72
2022/05/01 09:45:34;;;;;;;9.33;6.43;;;;;;;-145.18;100.00;47258.16;4989989;28;20457;-72
2022/05/01 09:47:59;;;;;;;10.27;6.77;;;;;;;-145.18;100.00;47238.63;4990416;28;20037;-72
2022/05/01 09:50:43;;;;;;;10.77;6.50;;;;;;;-145.18;100.00;47238.63;4989832;28;20538;-72
2022/05/01 09:53:09;;;;;;;10.60;6.90;;;;;;;-145.18;100.00;47281.59;4990236;28;20398;-72
2022/05/01 09:55:35;;;;;;;10.73;6.57;;;;;;;-145.18;100.00;47283.56;4989759;28;20026;-72
2022/05/01 09:58:23;;;;;;;15.63;7.27;;;;;;;-145.18;100.00;47291.38;4990312;28;20035;-72
2022/05/01 10:00:48;;;;;;;9.10;6.17;;;;;;;-145.18;100.00;47285.50;4989698;28;20050;-72
2022/05/01 10:03:20;;;;;;;12.40;6.83;;;;;;;-145.18;100.00;47301.16;4990162;28;20391;-72
2022/05/01 10:05:47;;;;;;;7.10;5.70;;;;;;;-145.18;100.00;47287.47;4993582;28;20045;-72
2022/05/01 10:08:15;;;;;;;9.37;7.20;;;;;;;-145.18;100.00;47283.56;4994242;28;20276;-72
2022/05/01 10:10:43;;;;;;;9.37;7.00;;;;;;;-145.18;100.00;47273.78;4993358;28;20132;-72
2022/05/01 10:13:10;;;;;;;8.53;6.60;;;;;;;-145.18;100.00;47281.59;4993846;28;20494;-72
2022/05/01 10:15:36;;;;;;;12.23;6.73;;;;;;;-145.18;100.00;47273.78;4993252;28;20030;-72
2022/05/01 10:18:02;;;;;;;18.27;6.67;;;;;;;-145.18;100.00;47273.78;4993946;28;20038;-72
2022/05/01 10:20:28;;;;;;;8.93;6.80;;;;;;;-145.18;100.00;47205.41;4993413;28;20129;-72
2022/05/01 10:22:54;;;;;;;10.63;6.87;;;;;;;-145.18;100.00;47226.91;4993928;28;20035;-72
2022/05/01 10:25:20;;;;;;;10.73;6.20;;;;;;;-145.18;100.00;47230.81;4993516;28;20035;-72
2022/05/01 10:28:14;;;;;;;9.60;6.27;;;;;;;-145.18;100.00;47254.25;4993561;28;20088;-72
2022/05/01 10:34:36;;;;;;;9.57;6.70;;;;;;;-145.18;100.00;47273.78;5013294;28;20439;-72
2022/05/01 10:37:23;;;;;;;10.57;6.80;;;;;;;-145.18;100.00;47258.16;4972260;28;20739;-72
2022/05/01 10:39:50;;;;;;;10.07;6.37;;;;;;;-145.18;100.00;47262.06;5012618;28;20049;-72
2022/05/01 10:42:43;;;;;;;12.27;6.53;;;;;;;-145.18;100.00;47230.81;5011623;28;20117;-72
2022/05/01 10:45:24;;;;;;;10.00;6.30;;;;;;;-145.18;100.00;47219.09;5010275;28;20124;-72
2022/05/01 10:47:52;;;;;;;10.93;6.67;;;;;;;-145.18;100.00;47187.84;5012810;28;20034;-71
2022/05/01 10:50:27;;;;;;;8.87;5.77;;;;;;;-145.18;100.00;47183.94;5012916;28;20037;-73
2022/05/01 10:53:08;;;;;;;8.25;6.18;;;;;;;-145.18;100.00;47139.00;5009464;28;20033;-72
2022/05/01 10:55:49;;;;;;;8.77;5.83;;;;;;;-145.18;100.00;47144.84;5010232;28;20486;-72
2022/05/01 10:58:40;;;;;;;10.00;5.77;;;;;;;-145.18;100.00;47180.03;5012203;28;20048;-72
2022/05/01 11:01:06;;;;;;;8.13;5.37;;;;;;;-145.18;100.00;47189.78;5009176;28;20046;-72
2022/05/01 11:03:35;;;;;;;10.13;6.00;;;;;;;-145.18;100.00;47221.03;5011484;28;20044;-72
2022/05/01 11:06:03;;;;;;;7.77;5.53;;;;;;;-145.18;100.00;47238.63;5011800;28;20053;-72
2022/05/01 11:08:33;;;;;;;8.27;5.33;;;;;;;-145.18;100.00;47240.56;5012340;28;20116;-72
2022/05/01 11:11:00;;;;;;;7.33;5.57;;;;;;;-145.18;100.00;47250.34;5012153;28;20088;-72
2022/05/01 11:13:35;;;;;;;9.13;5.73;;;;;;;-145.18;100.00;47240.56;5011609;28;20018;-72
2022/05/01 11:16:00;;;;;;;10.47;6.47;;;;;;;-145.18;100.00;47207.38;5009940;28;20116;-72
2022/05/01 11:18:47;;;;;;;10.83;5.93;;;;;;;-145.18;100.00;47185.88;4999694;28;20034;-72
2022/05/01 11:21:21;;;;;;;10.33;5.47;;;;;;;-145.18;100.00;47187.84;4993031;28;20041;-72
2022/05/01 11:23:58;;;;;;;10.37;5.70;;;;;;;-145.18;100.00;47172.19;5012029;28;20026;-73
2022/05/01 11:26:23;;;;;;;7.93;5.40;;;;;;;-145.18;100.00;47133.13;5011931;28;20107;-72
2022/05/01 11:28:51;;;;;;;8.53;5.87;;;;;;;-145.18;100.00;47105.78;5011385;28;20490;-72